McKean County Weather on FaceBook
Current Metar reports for airports in our Region

Nearby METAR Reports

Metar reports(Meteorological Terminal Aviation Routine) are mainly used by pilots for information on what is happening at their destination during their pre-flight weather briefings and by meteorologists to assist in short term forecasts. A raw Metar is one of the most universal ways to communicate weather information in the world and are usually transmitted by airports, but some come from permanent sanctioned weather observatories.

Listed below are Metars from airports within 100 miles of our station here in Smethport Pa. The first one of course is the Bradford Regional Airport, then the Olean NY airport and so on. Each airport has it's own table to display it's data and at the bottom of the table is 'Raw' Metar for each airport. Most pilots and weather forecasters can look at the raw data and tell you what is up, but we use a script that handles all of the details for us.

KBFD - Bradford, Pennsylvania, USA
Distance from station: NW 7mi, 11km
Updated: Fri, 23-Aug-2019 12:53pm EDT
Clear
Clear
 Wind from varies
Wind: varies 6 mph , 9 km/h
Temperature: 66°F , 19°C
Dew Point: 48°F , 9°C
Humidity: 52%
Barometer: 30.13 inHg , 1020.3 hPa
Clouds: Clear
Visibility: 10 miles , 16 km
2019/08/23 16:53 KBFD 231653Z AUTO VRB05KT 10SM CLR 19/09 A3013 RMK AO2 SLP197 T01890089 $
KOLE - Olean, New York, USA
Distance from station: NNE 37mi, 59km
Updated: Fri, 23-Aug-2019 1:15pm EDT
Mostly Cloudy
Mostly Cloudy
 Wind from NNE
Wind: NNE 7 mph , 11 km/h
Temperature: 61°F , 16°C
Dew Point: 52°F , 11°C
Humidity: 72%
Barometer: 30.14 inHg , 1020.7 hPa
Clouds: Mostly Cloudy
Visibility: 10 miles , 16 km
Cloud details: Partly Cloudy 3100 ft
Partly Cloudy 4600 ft
Mostly Cloudy 6000 ft
2019/08/23 17:15 KOLE 231715Z AUTO 03006KT 10SM SCT031 SCT046 BKN060 16/11 A3014 RMK AO2
 
KELZ - Wellsville, New York, USA
Distance from station: NE 40mi, 64km
Updated: Fri, 23-Aug-2019 12:56pm EDT
Mostly Cloudy
Mostly Cloudy
 Wind from varies
Wind: varies 6 mph , 9 km/h
Temperature: 64°F , 18°C
Dew Point: 52°F , 11°C
Humidity: 64%
Barometer: 30.14 inHg , 1020.7 hPa
Clouds: Mostly Cloudy
Visibility: 10 miles , 16 km
Cloud details: Mostly Cloudy 5500 ft
2019/08/23 16:56 KELZ 231656Z AUTO VRB05KT 10SM BKN055 18/11 A3014 RMK AO2 SLP204 T01780111
KDUJ - Du Bois, Pennsylvania, USA
Distance from station: SSW 42mi, 68km
Updated: Fri, 23-Aug-2019 12:53pm EDT
Few Clouds
Few Clouds
 Wind from N
Wind: N 8 mph , 13 km/h
Temperature: 64°F , 18°C
Dew Point: 52°F , 11°C
Humidity: 64%
Barometer: 30.11 inHg , 1019.6 hPa
Clouds: Few Clouds
Visibility: 10 miles , 16 km
Cloud details: Few Clouds 4200 ft
2019/08/23 16:53 KDUJ 231653Z AUTO 36007KT 10SM FEW042 18/11 A3011 RMK AO2 SLP189 T01830111
 
KJHW - Jamestown, New York, USA
Distance from station: NW 46mi, 75km
Updated: Fri, 23-Aug-2019 12:56pm EDT
Mostly Cloudy
Mostly Cloudy
 Wind from varies
Wind: varies 7 mph , 11 km/h
Temperature: 64°F , 18°C
Dew Point: 52°F , 11°C
Humidity: 64%
Barometer: 30.14 inHg , 1020.7 hPa
Clouds: Mostly Cloudy
Visibility: 10 miles , 16 km
Cloud details: Partly Cloudy 3400 ft
Mostly Cloudy 6000 ft
2019/08/23 16:56 KJHW 231656Z AUTO VRB06KT 10SM SCT034 BKN060 18/11 A3014 RMK AO2 SLP207 T01830111
KFIG - Clearfield, Pennsylvania, USA
Distance from station: S 47mi, 75km
Updated: Fri, 23-Aug-2019 12:54pm EDT
Few Clouds
Few Clouds
 Wind from N
Wind: N 9 mph , 15 km/h
Temperature: 66°F , 19°C
Dew Point: 52°F , 11°C
Humidity: 60%
Barometer: 30.10 inHg , 1019.3 hPa
Clouds: Few Clouds
Visibility: 10 miles , 16 km
Cloud details: Few Clouds 3700 ft
2019/08/23 16:54 KFIG 231654Z AUTO 01008KT 10SM FEW037 19/11 A3010 RMK AO2 SLP186 T01940111
 
KDKK - Dunkirk, New York, USA
Distance from station: NW 66mi, 106km
Updated: Fri, 23-Aug-2019 12:53pm EDT
Clear
Clear
 Wind from N
Wind: N 13 mph , 20 km/h
Temperature: 72°F , 22°C
Dew Point: 55°F , 13°C
Humidity: 57%
Barometer: 30.13 inHg , 1020.3 hPa
Clouds: Clear
Visibility: 10 miles , 16 km
2019/08/23 16:53 KDKK 231653Z AUTO 35011KT 10SM CLR 22/13 A3013 RMK AO2 SLP200 T02220128
KUNV - State College, Pennsylvania, USA
Distance from station: SSE 71mi, 114km
Updated: Fri, 23-Aug-2019 12:53pm EDT
Partly Cloudy
Partly Cloudy
 Wind from calm
Wind: Calm
Temperature: 68°F , 20°C
Dew Point: 57°F , 14°C
Humidity: 69%
Barometer: 30.09 inHg , 1019 hPa
Clouds: Partly Cloudy
Visibility: 10 miles , 16 km
Cloud details: Partly Cloudy 3000 ft
2019/08/23 16:53 KUNV 231653Z 00000KT 10SM SCT030 20/14 A3009
 
KFKL - Franklin, Pennsylvania, USA
Distance from station: WSW 72mi, 116km
Updated: Fri, 23-Aug-2019 12:56pm EDT
Few Clouds
Few Clouds
 Wind from W
Wind: W 5 mph , 7 km/h
Temperature: 66°F , 19°C
Dew Point: 54°F , 12°C
Humidity: 64%
Barometer: 30.14 inHg , 1020.7 hPa
Clouds: Few Clouds
Visibility: 10 miles , 16 km
Cloud details: Few Clouds 3300 ft
2019/08/23 16:56 KFKL 231656Z AUTO 27004KT 10SM FEW033 19/12 A3014 RMK AO2 SLP205 T01890117
KDSV - Dansville, New York, USA
Distance from station: NE 73mi, 117km
Updated: Fri, 23-Aug-2019 12:54pm EDT
Mostly Cloudy
Mostly Cloudy
 Wind from NW
Wind: NW 10 mph , 17 km/h
Temperature: 70°F , 21°C
Dew Point: 54°F , 12°C
Humidity: 57%
Barometer: 30.11 inHg , 1019.6 hPa
Clouds: Mostly Cloudy
Visibility: 10 miles , 16 km
Cloud details: Few Clouds 4100 ft
Mostly Cloudy 7500 ft
2019/08/23 16:54 KDSV 231654Z AUTO 32009KT 10SM FEW041 BKN075 21/12 A3011 RMK AO2 SLP201 T02110122
 
KIDI - Indiana/Stewart, Pennsylvania, USA
Distance from station: SSW 81mi, 130km
Updated: Fri, 23-Aug-2019 1:15pm EDT
Partly Cloudy
Partly Cloudy
 Wind from varies
Wind: varies 5 mph , 7 km/h
Temperature: 66°F , 19°C
Dew Point: 57°F , 14°C
Humidity: 73%
Barometer: 30.14 inHg , 1020.7 hPa
Clouds: Partly Cloudy
Visibility: 10 miles , 16 km
Cloud details: Partly Cloudy 3000 ft
2019/08/23 17:15 KIDI 231715Z AUTO VRB04KT 10SM SCT030 19/14 A3014 RMK A01
KBUF - Buffalo/Cheektow, New York, USA
Distance from station: N 84mi, 136km
Updated: Fri, 23-Aug-2019 12:54pm EDT
Mostly Cloudy
Mostly Cloudy
 Wind from NNE
Wind: NNE 10 mph , 17 km/h
Temperature: 70°F , 21°C
Dew Point: 50°F , 10°C
Humidity: 50%
Barometer: 30.12 inHg , 1020 hPa
Clouds: Mostly Cloudy
Visibility: 10 miles , 16 km
Cloud details: Partly Cloudy 4500 ft
Mostly Cloudy 7000 ft
2019/08/23 16:54 KBUF 231654Z 02009KT 10SM SCT045 BKN070 21/10 A3012 RMK AO2 SLP199 T02060100
 
KGKJ - Meadville, Pennsylvania, USA
Distance from station: W 86mi, 138km
Updated: Fri, 23-Aug-2019 12:53pm EDT
Partly Cloudy
Partly Cloudy
 Wind from N
Wind: N 9 mph , 15 km/h
Temperature: 70°F , 21°C
Dew Point: 54°F , 12°C
Humidity: 57%
Barometer: 30.14 inHg , 1020.7 hPa
Clouds: Partly Cloudy
Visibility: 10 miles , 16 km
Cloud details: Few Clouds 3400 ft
Partly Cloudy 5500 ft
2019/08/23 16:53 KGKJ 231653Z AUTO 36008KT 10SM FEW034 SCT055 21/12 A3014 RMK AO2 SLP200 T02060122 TSNO
KERI - Erie, Pennsylvania, USA
Distance from station: WNW 87mi, 140km
Updated: Fri, 23-Aug-2019 12:51pm EDT
Few Clouds
Few Clouds
 Wind from N
Wind: N 10 mph , 17 km/h
Temperature: 72°F , 22°C
Dew Point: 55°F , 13°C
Humidity: 57%
Barometer: 30.14 inHg , 1020.7 hPa
Clouds: Few Clouds
Visibility: 10 miles , 16 km
Cloud details: Few Clouds 2500 ft
Few Clouds 3900 ft
2019/08/23 16:51 KERI 231651Z 36009KT 10SM FEW025 FEW039 22/13 A3014 RMK AO2 SLP202 T02170128
 
KELM - Elmira, New York, USA
Distance from station: ENE 90mi, 145km
Updated: Fri, 23-Aug-2019 12:53pm EDT
Clear
Clear
 Wind from N
Wind: N 10 mph , 17 km/h
Temperature: 72°F , 22°C
Dew Point: 54°F , 12°C
Humidity: 53%
Barometer: 30.08 inHg , 1018.6 hPa
Clouds: Clear
Visibility: 10 miles , 16 km
2019/08/23 16:53 KELM 231653Z 36009KT 10SM CLR 22/12 A3008 RMK AO2 SLP181 T02170117
KIPT - Williamsport, Pennsylvania, USA
Distance from station: ESE 91mi, 146km
Updated: Fri, 23-Aug-2019 12:54pm EDT
Overcast
Overcast
 Wind from WSW
Wind: WSW 5 mph , 7 km/h
Temperature: 72°F , 22°C
Dew Point: 57°F , 14°C
Humidity: 61%
Barometer: 30.04 inHg , 1017.3 hPa
Clouds: Overcast
Visibility: 10 miles , 16 km
Cloud details: Partly Cloudy 4900 ft
Overcast 6000 ft
2019/08/23 16:54 KIPT 231654Z 25004KT 10SM SCT049 OVC060 22/14 A3004 RMK AO2 SLP172 T02170144
 
KBTP - Butler Co., Pennsylvania, USA
Distance from station: SW 98mi, 157km
Updated: Fri, 23-Aug-2019 12:56pm EDT
Partly Cloudy
Partly Cloudy
 Wind from NNW
Wind: NNW 7 mph , 11 km/h
Temperature: 68°F , 20°C
Dew Point: 54°F , 12°C
Humidity: 60%
Barometer: 30.13 inHg , 1020.3 hPa
Clouds: Partly Cloudy
Visibility: 10 miles , 16 km
Cloud details: Partly Cloudy 3500 ft
2019/08/23 16:56 KBTP 231656Z AUTO 33006KT 10SM SCT035 20/12 A3013 RMK AO2 SLP203 T02000122
KAOO - Altoona, Pennsylvania, USA
Distance from station: S 99mi, 159km
Updated: Fri, 23-Aug-2019 1:05pm EDT
Mostly Cloudy
Mostly Cloudy
 Wind from varies
Wind: varies 7 mph , 11 km/h
Temperature: 66°F , 19°C
Dew Point: 57°F , 14°C
Humidity: 73%
Barometer: 30.10 inHg , 1019.3 hPa
Clouds: Mostly Cloudy
Visibility: 10 miles , 16 km
Cloud details: Few Clouds 2000 ft
Mostly Cloudy 3000 ft
2019/08/23 17:05 KAOO 231705Z AUTO VRB06KT 10SM FEW020 BKN030 19/14 A3010 RMK AO2 T01940139
 
KPIT - Pittsburg, Pennsylvania, USA
Distance from station: SSW 126mi, 203km
Updated: Fri, 23-Aug-2019 12:51pm EDT
Overcast
Overcast
 Wind from N
Wind: N 6 mph , 9 km/h
Temperature: 70°F , 21°C
Dew Point: 54°F , 12°C
Humidity: 57%
Barometer: 30.11 inHg , 1019.6 hPa
Clouds: Overcast
Visibility: 10 miles , 16 km
Cloud details: Partly Cloudy 3200 ft
Mostly Cloudy 8000 ft
Overcast 20000 ft
2019/08/23 16:51 KPIT 231651Z 01005KT 10SM SCT032 BKN080 OVC200 21/12 A3011 RMK AO2 SLP198 T02110117
KCLE - Cleveland, Ohio, USA
Distance from station: WSW 160mi, 258km
Updated: Fri, 23-Aug-2019 12:51pm EDT
Partly Cloudy
Partly Cloudy
 Wind from NNE
Wind: NNE 16 mph , 26 km/h, Gust: 22 mph , 35 km/h
Temperature: 72°F , 22°C
Dew Point: 54°F , 12°C
Humidity: 53%
Barometer: 30.18 inHg , 1022 hPa
Clouds: Partly Cloudy
Visibility: 10 miles , 16 km
Cloud details: Partly Cloudy 4300 ft
Partly Cloudy 5000 ft
2019/08/23 16:51 KCLE 231651Z 02014G19KT 10SM SCT043 SCT050 22/12 A3018 RMK AO2 SLP215 T02220117 $